createdAt,value
2023-04-13T00:03:02.611Z,96903.84
2023-04-13T00:06:05.648Z,96897.31
2023-04-13T00:09:08.638Z,96888.34
2023-04-13T00:12:12.913Z,96885.91
2023-04-13T00:15:17.637Z,96891.09
2023-04-13T00:18:21.492Z,96895.03
2023-04-13T00:21:26.072Z,96894.56
2023-04-13T00:24:28.892Z,96882.13
2023-04-13T00:27:31.646Z,96879.97
2023-04-13T00:30:35.967Z,96873.47
2023-04-13T00:33:42.787Z,96878.19
2023-04-13T00:36:45.617Z,96883.94
2023-04-13T00:39:52.164Z,96895.38
2023-04-13T00:42:57.150Z,96891.91
2023-04-13T00:46:01.301Z,96891.25
2023-04-13T00:49:04.030Z,96878.00
2023-04-13T00:52:10.236Z,96882.94
2023-04-13T00:55:13.403Z,96885.88
2023-04-13T00:58:16.257Z,96877.03
2023-04-13T01:01:22.748Z,96884.91
2023-04-13T01:04:31.295Z,96883.56
2023-04-13T01:07:47.849Z,96889.78
2023-04-13T01:10:54.887Z,96877.69
2023-04-13T01:14:07.289Z,96884.56
2023-04-13T01:17:15.670Z,96885.06
2023-04-13T01:20:18.743Z,96886.19
2023-04-13T01:23:44.260Z,96878.00
2023-04-13T01:27:08.569Z,96873.13
2023-04-13T01:30:11.635Z,96876.72
2023-04-13T01:33:15.393Z,96881.59
2023-04-13T01:36:18.294Z,96880.97
2023-04-13T01:39:22.036Z,96878.69
2023-04-13T01:42:34.396Z,96875.72
2023-04-13T01:45:48.379Z,96870.53
2023-04-13T01:48:54.958Z,96880.47
2023-04-13T01:52:06.520Z,96878.50
2023-04-13T01:55:12.720Z,96878.34
2023-04-13T01:58:19.433Z,96879.66
2023-04-13T02:01:30.192Z,96871.97
2023-04-13T02:04:35.232Z,96877.19
2023-04-13T02:07:40.830Z,96877.50
2023-04-13T02:10:43.693Z,96877.69
2023-04-13T02:13:46.649Z,96874.09
2023-04-13T02:16:54.852Z,96869.19
2023-04-13T02:19:58.215Z,96873.59
2023-04-13T02:23:01.825Z,96869.81
2023-04-13T02:26:07.221Z,96874.06
2023-04-13T02:29:10.670Z,96870.78
2023-04-13T02:32:13.981Z,96872.75
2023-04-13T02:35:17.305Z,96871.09
2023-04-13T02:38:20.322Z,96870.47
2023-04-13T02:41:27.413Z,96871.72
2023-04-13T02:44:30.639Z,96871.59
2023-04-13T02:47:35.278Z,96871.91
2023-04-13T02:50:39.645Z,96879.75
2023-04-13T02:53:46.709Z,96882.50
2023-04-13T02:56:49.684Z,96879.25
2023-04-13T02:59:53.605Z,96878.56
2023-04-13T03:02:59.194Z,96881.50
2023-04-13T03:06:08.095Z,96880.94
2023-04-13T03:09:21.930Z,96880.94
2023-04-13T03:12:30.524Z,96880.78
2023-04-13T03:15:33.261Z,96878.13
2023-04-13T03:18:36.889Z,96885.31
2023-04-13T03:21:41.818Z,96890.16
2023-04-13T03:24:49.297Z,96883.66
2023-04-13T03:27:59.334Z,96888.72
2023-04-13T03:31:06.515Z,96884.59
2023-04-13T03:34:12.635Z,96889.50
2023-04-13T03:37:17.946Z,96886.28
2023-04-13T03:40:21.184Z,96879.41
2023-04-13T03:43:27.643Z,96881.56
2023-04-13T03:46:41.637Z,96882.72
2023-04-13T03:50:01.698Z,96877.50
2023-04-13T03:53:06.663Z,96881.44
2023-04-13T03:56:10.380Z,96884.88
2023-04-13T03:59:14.291Z,96887.66
2023-04-13T04:02:17.853Z,96887.50
2023-04-13T04:05:22.203Z,96891.09
2023-04-13T04:08:30.623Z,96886.88
2023-04-13T04:11:38.106Z,96878.88
2023-04-13T04:14:42.880Z,96879.88
2023-04-13T04:17:53.514Z,96884.78
2023-04-13T04:20:57.505Z,96882.81
2023-04-13T04:24:03.260Z,96880.25
2023-04-13T04:27:06.589Z,96885.47
2023-04-13T04:30:11.221Z,96888.75
2023-04-13T04:33:14.850Z,96891.69
2023-04-13T04:36:18.825Z,96889.41
2023-04-13T04:39:33.285Z,96888.75
2023-04-13T04:42:45.665Z,96882.03
2023-04-13T04:46:20.653Z,96890.06
2023-04-13T04:49:29.093Z,96888.09
2023-04-13T04:52:34.672Z,96896.75
2023-04-13T04:55:40.165Z,96898.53
2023-04-13T04:58:47.774Z,96908.34
2023-04-13T05:01:53.793Z,96914.91
2023-04-13T05:04:58.244Z,96921.75
2023-04-13T05:08:01.936Z,96931.25
2023-04-13T05:11:07.730Z,96926.38
2023-04-13T05:14:12.457Z,96926.06
2023-04-13T05:17:18.949Z,96926.25
2023-04-13T05:20:22.295Z,96923.81
2023-04-13T05:23:34.257Z,96924.47
2023-04-13T05:26:43.319Z,96923.16
2023-04-13T05:29:49.031Z,96918.56
2023-04-13T05:32:57.267Z,96921.00
2023-04-13T05:36:01.070Z,96916.19
2023-04-13T05:39:05.182Z,96909.38
2023-04-13T05:42:09.758Z,96910.31
2023-04-13T05:45:18.469Z,96910.06
2023-04-13T05:48:37.157Z,96904.38
2023-04-13T05:51:44.280Z,96900.81
2023-04-13T05:54:47.399Z,96903.19
2023-04-13T05:57:51.904Z,96905.03
2023-04-13T06:00:55.197Z,96895.41
2023-04-13T06:04:06.385Z,96897.19
2023-04-13T06:07:09.545Z,96892.13
2023-04-13T06:10:17.289Z,96894.94
2023-04-13T06:13:20.426Z,96902.53
2023-04-13T06:16:24.588Z,96910.81
2023-04-13T06:19:29.030Z,96910.25
2023-04-13T06:22:32.359Z,96902.81
2023-04-13T06:25:35.880Z,96895.47
2023-04-13T06:28:40.141Z,96900.16
2023-04-13T06:31:43.052Z,96907.56
2023-04-13T06:34:51.614Z,96914.50
2023-04-13T06:37:54.684Z,96896.59
2023-04-13T06:41:07.430Z,96902.63
2023-04-13T06:44:14.207Z,96894.63
2023-04-13T06:47:43.527Z,96910.25
2023-04-13T06:50:48.961Z,96918.28
2023-04-13T06:53:53.919Z,96923.81
2023-04-13T06:56:57.469Z,96923.31
2023-04-13T07:00:00.617Z,96930.03
2023-04-13T07:03:04.437Z,96922.03
2023-04-13T07:06:09.120Z,96921.91
2023-04-13T07:09:13.225Z,96916.75
2023-04-13T07:12:16.527Z,96931.03
2023-04-13T07:15:20.257Z,96923.94
2023-04-13T07:18:23.107Z,96917.41
2023-04-13T07:21:25.965Z,96914.63
2023-04-13T07:24:34.443Z,96922.44
2023-04-13T07:27:41.557Z,96932.91
2023-04-13T07:30:45.197Z,96921.13
2023-04-13T07:33:49.157Z,96925.38
2023-04-13T07:36:57.812Z,96930.72
2023-04-13T07:40:01.376Z,96930.41
2023-04-13T07:43:08.890Z,96929.78
2023-04-13T07:46:15.976Z,96931.69
2023-04-13T07:49:19.071Z,96932.44
2023-04-13T07:52:22.814Z,96929.81
2023-04-13T07:55:29.678Z,96934.13
2023-04-13T07:58:32.742Z,96936.63
2023-04-13T08:01:35.930Z,96938.59
2023-04-13T08:04:40.415Z,96933.19
2023-04-13T08:07:46.906Z,96948.22
2023-04-13T08:10:51.663Z,96950.38
2023-04-13T08:13:55.196Z,96941.47
2023-04-13T08:16:58.726Z,96954.50
2023-04-13T08:20:01.775Z,96959.59
2023-04-13T08:23:05.598Z,96961.16
2023-04-13T08:26:09.426Z,96947.34
2023-04-13T08:29:14.867Z,96947.72
2023-04-13T08:32:17.983Z,96961.91
2023-04-13T08:35:23.176Z,96960.34
2023-04-13T08:38:25.945Z,96962.22
2023-04-13T08:41:31.157Z,96953.44
2023-04-13T08:44:40.588Z,96957.63
2023-04-13T08:47:47.693Z,96955.81
2023-04-13T08:50:52.727Z,96953.69
2023-04-13T08:53:57.223Z,96952.19
2023-04-13T08:57:04.866Z,96948.78
2023-04-13T09:00:12.844Z,96946.13
2023-04-13T09:03:21.321Z,96951.19
2023-04-13T09:06:35.347Z,96947.88
2023-04-13T09:09:43.271Z,96954.41
2023-04-13T09:12:48.040Z,96959.22
2023-04-13T09:15:51.019Z,96949.75
2023-04-13T09:18:59.844Z,96951.84
2023-04-13T09:22:14.251Z,96961.16
2023-04-13T09:25:24.315Z,96948.72
2023-04-13T09:28:27.437Z,96940.94
2023-04-13T09:31:35.056Z,96952.03
2023-04-13T09:34:37.881Z,96948.47
2023-04-13T09:37:44.046Z,96951.75
2023-04-13T09:40:50.033Z,96945.06
2023-04-13T09:43:52.727Z,96958.78
2023-04-13T09:47:07.222Z,96958.81
2023-04-13T09:50:28.715Z,96963.16
2023-04-13T09:53:47.018Z,96962.72
2023-04-13T09:56:56.065Z,96952.00
2023-04-13T10:00:01.979Z,96956.00
2023-04-13T10:03:15.806Z,96953.84
2023-04-13T10:06:18.850Z,96960.28
2023-04-13T10:09:21.747Z,96958.63
2023-04-13T10:12:25.473Z,96959.91
2023-04-13T10:15:40.866Z,96959.16
2023-04-13T10:18:49.294Z,96957.06
2023-04-13T10:21:52.882Z,96956.75
2023-04-13T10:24:55.670Z,96963.97
2023-04-13T10:27:59.900Z,96959.34
2023-04-13T10:31:06.198Z,96967.41
2023-04-13T10:34:10.877Z,96971.78
2023-04-13T10:37:19.890Z,96963.59
2023-04-13T10:40:22.989Z,96958.84
2023-04-13T10:43:30.327Z,96956.81
2023-04-13T10:46:36.797Z,96958.50
2023-04-13T10:49:39.899Z,96958.84
2023-04-13T10:52:42.581Z,96966.41
2023-04-13T10:55:45.524Z,96969.31
2023-04-13T10:58:54.936Z,96972.81
2023-04-13T11:01:58.909Z,96969.66
2023-04-13T11:05:02.420Z,96967.59
2023-04-13T11:08:06.168Z,96952.69
2023-04-13T11:11:14.862Z,96958.06
2023-04-13T11:14:22.000Z,96963.72
2023-04-13T11:17:25.236Z,96959.94
2023-04-13T11:20:38.754Z,96956.75
2023-04-13T11:23:41.719Z,96962.94
2023-04-13T11:26:44.883Z,96967.06
2023-04-13T11:30:00.867Z,96967.56
2023-04-13T11:33:04.151Z,96964.69
2023-04-13T11:36:08.215Z,96960.91
2023-04-13T11:39:11.233Z,96952.88
2023-04-13T11:42:14.120Z,96950.88
2023-04-13T11:45:18.996Z,96958.53
2023-04-13T11:48:24.565Z,96950.47
2023-04-13T11:51:27.395Z,96940.69
2023-04-13T11:54:31.362Z,96947.91
2023-04-13T11:57:35.094Z,96953.94
2023-04-13T12:00:41.644Z,96951.94
2023-04-13T12:03:57.578Z,96954.03
2023-04-13T12:07:17.649Z,96961.06
2023-04-13T12:10:40.528Z,96963.38
2023-04-13T12:14:06.519Z,96962.66
2023-04-13T12:20:21.001Z,96958.47
2023-04-13T12:23:25.711Z,96950.09
2023-04-13T12:27:16.087Z,96949.50
2023-04-13T12:30:02.918Z,96956.00
2023-04-13T12:33:05.692Z,96960.28
2023-04-13T12:36:11.657Z,96955.72
2023-04-13T12:39:14.781Z,96956.56
2023-04-13T12:42:17.735Z,96949.56
2023-04-13T12:45:20.526Z,96940.75
2023-04-13T12:48:23.330Z,96947.94
2023-04-13T12:51:27.025Z,96939.44
2023-04-13T12:54:31.228Z,96948.44
2023-04-13T12:57:33.921Z,96941.44
2023-04-13T13:00:36.731Z,96942.25
2023-04-13T13:03:39.591Z,96944.38
2023-04-13T13:06:42.864Z,96935.88
2023-04-13T13:09:45.744Z,96941.63
2023-04-13T13:12:48.499Z,96933.44
2023-04-13T13:15:52.167Z,96928.69
2023-04-13T13:18:55.773Z,96936.88
2023-04-13T13:22:00.498Z,96927.38
2023-04-13T13:25:04.648Z,96930.13
2023-04-13T13:28:14.841Z,96926.03
2023-04-13T13:31:18.278Z,96927.34
2023-04-13T13:34:21.302Z,96917.34
2023-04-13T13:37:24.510Z,96919.13
2023-04-13T13:40:27.310Z,96923.88
2023-04-13T13:43:30.163Z,96930.91
2023-04-13T13:46:33.396Z,96938.44
2023-04-13T13:49:40.126Z,96931.22
2023-04-13T13:52:51.826Z,96939.09
2023-04-13T13:56:06.728Z,96933.56
2023-04-13T13:59:09.716Z,96932.56
2023-04-13T14:02:13.116Z,96936.34
2023-04-13T14:05:16.149Z,96929.13
2023-04-13T14:08:19.153Z,96934.56
2023-04-13T14:11:22.828Z,96929.28
2023-04-13T14:14:25.995Z,96932.91
2023-04-13T14:17:28.981Z,96933.28
2023-04-13T14:20:32.722Z,96927.66
2023-04-13T14:23:37.824Z,96924.75
2023-04-13T14:26:42.075Z,96927.56
2023-04-13T14:29:47.033Z,96929.34
2023-04-13T14:32:51.520Z,96931.00
2023-04-13T14:35:54.433Z,96930.34
2023-04-13T14:39:00.879Z,96931.66
2023-04-13T14:42:04.115Z,96940.47
2023-04-13T14:45:13.022Z,96936.41
2023-04-13T14:48:15.887Z,96940.47
2023-04-13T14:51:18.858Z,96947.84
2023-04-13T14:54:21.764Z,96945.56
2023-04-13T14:57:24.709Z,96943.44
2023-04-13T15:00:39.321Z,96944.09
2023-04-13T15:03:42.507Z,96949.34
2023-04-13T15:06:47.929Z,96941.63
2023-04-13T15:09:50.906Z,96941.81
2023-04-13T15:12:53.612Z,96943.75
2023-04-13T15:15:57.171Z,96946.38
2023-04-13T15:19:00.230Z,96937.50
2023-04-13T15:22:03.357Z,96936.25
2023-04-13T15:25:06.779Z,96942.13
2023-04-13T15:28:10.841Z,96944.06
2023-04-13T15:31:13.825Z,96935.19
2023-04-13T15:34:16.960Z,96936.81
2023-04-13T15:37:19.846Z,96948.25
2023-04-13T15:40:25.482Z,96944.00
2023-04-13T15:43:28.508Z,96941.38
2023-04-13T15:46:32.856Z,96949.38
2023-04-13T15:49:36.047Z,96955.44
2023-04-13T15:52:41.673Z,96952.19
2023-04-13T15:55:44.689Z,96952.22
2023-04-13T15:58:47.523Z,96952.38
2023-04-13T16:01:50.485Z,96957.94
2023-04-13T16:04:54.437Z,96959.59
2023-04-13T16:07:57.636Z,96959.13
2023-04-13T16:11:01.761Z,96954.06
2023-04-13T16:14:07.785Z,96950.28
2023-04-13T16:17:11.539Z,96939.19
2023-04-13T16:20:14.568Z,96944.72
2023-04-13T16:23:18.993Z,96945.84
2023-04-13T16:26:22.689Z,96952.06
2023-04-13T16:29:27.003Z,96960.22
2023-04-13T16:32:29.755Z,96954.81
2023-04-13T16:35:32.724Z,96964.94
2023-04-13T16:38:35.701Z,96960.53
2023-04-13T16:41:38.529Z,96967.31
2023-04-13T16:44:41.389Z,96974.00
2023-04-13T16:47:44.336Z,96978.28
2023-04-13T16:50:47.369Z,96973.03
2023-04-13T16:53:50.537Z,96981.38
2023-04-13T16:56:53.887Z,96978.25
2023-04-13T17:00:00.647Z,96979.41
2023-04-13T17:03:04.028Z,96979.09
2023-04-13T17:06:07.652Z,96980.03
2023-04-13T17:09:10.509Z,96984.50
2023-04-13T17:12:13.693Z,96982.66
2023-04-13T17:15:16.655Z,96980.53
2023-04-13T17:18:19.829Z,96988.88
2023-04-13T17:21:23.543Z,96985.94
2023-04-13T17:24:26.404Z,96986.75
2023-04-13T17:27:29.277Z,96996.41
2023-04-13T17:30:32.575Z,96988.25
2023-04-13T17:33:38.266Z,96984.97
2023-04-13T17:36:41.388Z,96984.31
2023-04-13T17:39:48.221Z,96990.69
2023-04-13T17:42:50.990Z,96990.38
2023-04-13T17:45:54.013Z,96987.59
2023-04-13T17:48:57.404Z,96993.13
2023-04-13T17:52:01.080Z,96992.34
2023-04-13T17:55:04.357Z,97001.31
2023-04-13T17:58:07.439Z,97003.28
2023-04-13T18:01:11.768Z,97000.34
2023-04-13T18:04:15.292Z,97004.59
2023-04-13T18:07:18.778Z,97006.22
2023-04-13T18:10:21.622Z,97021.44
2023-04-13T18:13:24.893Z,97020.78
2023-04-13T18:16:28.350Z,97011.81
2023-04-13T18:19:32.952Z,97011.44
2023-04-13T18:22:35.994Z,97015.72
2023-04-13T18:25:39.109Z,97012.78
2023-04-13T18:28:42.219Z,97022.94
2023-04-13T18:31:45.072Z,97026.69
2023-04-13T18:34:48.016Z,97029.13
2023-04-13T18:37:50.961Z,97032.91
2023-04-13T18:40:53.905Z,97037.97
2023-04-13T18:43:56.723Z,97037.66
2023-04-13T18:46:59.660Z,97040.94
2023-04-13T18:50:02.604Z,97040.09
2023-04-13T18:53:06.213Z,97049.75
2023-04-13T18:56:09.112Z,97045.47
2023-04-13T18:59:12.232Z,97052.88
2023-04-13T19:02:15.627Z,97051.72
2023-04-13T19:05:19.519Z,97060.22
2023-04-13T19:08:22.271Z,97062.69
2023-04-13T19:11:28.005Z,97054.16
2023-04-13T19:14:30.986Z,97053.34
2023-04-13T19:17:34.566Z,97059.91
2023-04-13T19:20:37.356Z,97054.31
2023-04-13T19:23:40.593Z,97056.94
2023-04-13T19:26:44.027Z,97050.56
2023-04-13T19:29:47.078Z,97049.09
2023-04-13T19:32:50.656Z,97049.91
2023-04-13T19:35:53.732Z,97058.56
2023-04-13T19:38:56.813Z,97050.09
2023-04-13T19:41:59.535Z,97054.50
2023-04-13T19:45:03.457Z,97048.63
2023-04-13T19:48:06.968Z,97041.88
2023-04-13T19:51:09.903Z,97048.25
2023-04-13T19:54:12.789Z,97053.19
2023-04-13T19:57:15.564Z,97037.47
2023-04-13T20:00:19.432Z,97046.81
2023-04-13T20:03:22.312Z,97038.63
2023-04-13T20:06:25.894Z,97022.25
2023-04-13T20:09:29.257Z,97020.31
2023-04-13T20:12:32.111Z,97022.44
2023-04-13T20:15:35.677Z,97011.47
2023-04-13T20:18:38.746Z,97013.09
2023-04-13T20:21:42.385Z,97004.63
2023-04-13T20:24:45.231Z,96999.38
2023-04-13T20:27:48.057Z,96999.06
2023-04-13T20:30:50.957Z,96994.16
2023-04-13T20:33:53.612Z,96988.91
2023-04-13T20:36:59.280Z,96988.41
2023-04-13T20:40:03.133Z,96985.63
2023-04-13T20:43:06.545Z,96987.59
2023-04-13T20:46:10.395Z,96979.41
2023-04-13T20:49:13.946Z,96976.16
2023-04-13T20:52:18.496Z,96977.44
2023-04-13T20:55:24.950Z,96970.59
2023-04-13T20:58:28.942Z,96970.91
2023-04-13T21:01:32.380Z,96950.63
2023-04-13T21:04:35.132Z,96948.16
2023-04-13T21:07:38.413Z,96948.50
2023-04-13T21:10:41.260Z,96949.31
2023-04-13T21:13:44.223Z,96956.34
2023-04-13T21:16:46.978Z,96945.38
2023-04-13T21:19:49.841Z,96943.75
2023-04-13T21:22:52.635Z,96941.81
2023-04-13T21:25:55.475Z,96947.34
2023-04-13T21:28:58.138Z,96945.06
2023-04-13T21:32:02.592Z,96936.06
2023-04-13T21:35:06.074Z,96932.31
2023-04-13T21:38:09.162Z,96913.03
2023-04-13T21:41:19.884Z,96918.75
2023-04-13T21:44:29.960Z,96920.88
2023-04-13T21:47:35.354Z,96915.34
2023-04-13T21:50:38.060Z,96912.06
2023-04-13T21:53:40.793Z,96909.09
2023-04-13T21:56:43.592Z,96903.06
2023-04-13T21:59:46.289Z,96908.47
2023-04-13T22:02:49.772Z,96898.28
2023-04-13T22:05:52.509Z,96903.22
2023-04-13T22:08:55.378Z,96897.97
2023-04-13T22:11:58.280Z,96896.34
2023-04-13T22:15:00.959Z,96888.66
2023-04-13T22:18:04.017Z,96884.59
2023-04-13T22:21:07.296Z,96875.44
2023-04-13T22:24:10.030Z,96870.69
2023-04-13T22:27:12.738Z,96878.38
2023-04-13T22:30:15.613Z,96871.50
2023-04-13T22:33:19.074Z,96861.19
2023-04-13T22:36:21.948Z,96866.09
2023-04-13T22:39:24.554Z,96859.41
2023-04-13T22:42:27.808Z,96854.50
2023-04-13T22:45:30.532Z,96855.66
2023-04-13T22:48:33.246Z,96852.88
2023-04-13T22:51:42.177Z,96845.66
2023-04-13T22:54:46.668Z,96843.38
2023-04-13T22:57:49.379Z,96840.94
2023-04-13T23:00:52.349Z,96839.28
2023-04-13T23:03:55.938Z,96829.97
2023-04-13T23:06:58.866Z,96840.44
2023-04-13T23:10:01.533Z,96833.44
2023-04-13T23:13:05.018Z,96827.06
2023-04-13T23:16:08.451Z,96823.44
2023-04-13T23:19:11.203Z,96826.22
2023-04-13T23:22:14.006Z,96820.16
2023-04-13T23:25:16.742Z,96827.50
2023-04-13T23:28:19.467Z,96819.34
2023-04-13T23:31:22.278Z,96816.25
2023-04-13T23:34:25.011Z,96810.19
2023-04-13T23:37:27.882Z,96803.63
2023-04-13T23:40:30.997Z,96807.25
2023-04-13T23:43:33.767Z,96797.59
2023-04-13T23:46:36.712Z,96802.50
2023-04-13T23:49:39.419Z,96790.25
2023-04-13T23:52:42.589Z,96790.09
2023-04-13T23:55:45.258Z,96784.69
2023-04-13T23:58:47.985Z,96779.81
